Mesaieed — A7NA — position and weather

sailwx.info

Track history (hours):
 
Tides and Currents Weather Stations Pressure Air Temp Water Temp Dewpoint Dewpoint Depression Visibility Wind Speed Wind Dir Waves Ship Positions

Mesaieed

Last reported at 2018-Jan-12 12:59 UTC. Time now 2018-Feb-24 15:24 UTC.
Position N 21°60' E 121°12'.
Warning: this ship's position is 43 days out of date.

Length 244 m; draft 9 m.

Type: Tanker. MMSI: 466243000.

Date/timePositionNaut miles runAvg speedWind from/ knotsBaromVisibWave heightAir tempDewpointWater temp
2018-Jan-12 12:59N 21°60' E 121°12'813.5
2018-Jan-12 12:26N 22°06' E 121°17'2113.7
2018-Jan-12 10:53N 22°22' E 121°31'614.2
2018-Jan-12 10:29N 22°27' E 121°35'814.3
2018-Jan-12 09:57N 22°33' E 121°40'1114.0
2018-Jan-12 09:09N 22°42' E 121°47'214.0
2018-Jan-12 09:00N 22°44' E 121°48'714.1
2018-Jan-12 08:29N 22°51' E 121°50'713.8
2018-Jan-12 07:58N 22°57' E 121°53'63 9.9
2018-Jan-12 01:37N 23°56' E 122°16'213.9
2018-Jan-12 01:30N 23°58' E 122°17'714.1
2018-Jan-12 01:00N 24°05' E 122°19'713.9
2018-Jan-12 00:30N 24°11' E 122°22'713.7
2018-Jan-12 00:00N 24°17' E 122°24'713.5
2018-Jan-11 23:30N 24°24' E 122°27'713.4
2018-Jan-11 23:00N 24°30' E 122°29'713.3
2018-Jan-11 22:30N 24°36' E 122°32'612.9
2018-Jan-11 22:00N 24°42' E 122°34'612.9
2018-Jan-11 21:30N 24°49' E 122°37'612.5
2018-Jan-11 21:00N 24°54' E 122°39'612.4
2018-Jan-11 20:30N 25°00' E 122°41'612.5
2018-Jan-11 20:00N 25°06' E 122°44'612.4
2018-Jan-11 19:30N 25°12' E 122°46'612.5
2018-Jan-11 19:00N 25°18' E 122°48'  
Track history (hours):
 
Tides and Currents Weather Stations Pressure Air Temp Water Temp Dewpoint Dewpoint Depression Visibility Wind Speed Wind Dir Waves Ship Positions

Mesaieed

Last reported at 2018-Jan-12 12:59 UTC. Time now 2018-Feb-24 15:24 UTC.
Position N 21°60' E 121°12'.
Warning: this ship's position is 43 days out of date.

Length 244 m; draft 9 m.

Type: Tanker. MMSI: 466243000.

Date/timePositionNaut miles runAvg speedWind from/ knotsBaromVisibWave heightAir tempDewpointWater temp
2018-Jan-12 12:59N 21°60' E 121°12'813.5
2018-Jan-12 12:26N 22°06' E 121°17'2113.7
2018-Jan-12 10:53N 22°22' E 121°31'614.2
2018-Jan-12 10:29N 22°27' E 121°35'814.3
2018-Jan-12 09:57N 22°33' E 121°40'1114.0
2018-Jan-12 09:09N 22°42' E 121°47'214.0
2018-Jan-12 09:00N 22°44' E 121°48'714.1
2018-Jan-12 08:29N 22°51' E 121°50'713.8
2018-Jan-12 07:58N 22°57' E 121°53'63 9.9
2018-Jan-12 01:37N 23°56' E 122°16'213.9
2018-Jan-12 01:30N 23°58' E 122°17'714.1
2018-Jan-12 01:00N 24°05' E 122°19'713.9
2018-Jan-12 00:30N 24°11' E 122°22'713.7
2018-Jan-12 00:00N 24°17' E 122°24'713.5
2018-Jan-11 23:30N 24°24' E 122°27'713.4
2018-Jan-11 23:00N 24°30' E 122°29'713.3
2018-Jan-11 22:30N 24°36' E 122°32'612.9
2018-Jan-11 22:00N 24°42' E 122°34'612.9
2018-Jan-11 21:30N 24°49' E 122°37'612.5
2018-Jan-11 21:00N 24°54' E 122°39'612.4
2018-Jan-11 20:30N 25°00' E 122°41'612.5
2018-Jan-11 20:00N 25°06' E 122°44'612.4
2018-Jan-11 19:30N 25°12' E 122°46'612.5
2018-Jan-11 19:00N 25°18' E 122°48'  

Dump ship's entire track history